Map

Track Data

SID SEASON NUMBER BASIN SUBBASIN NAME ISO_TIME NATURE LAT LON WMO_WIND WMO_PRES WMO_AGENCY TRACK_TYPE DIST2LAND LANDFALL IFLAG USA_AGENCY USA_ATCF_ID USA_LAT USA_LON USA_RECORD USA_STATUS USA_WIND USA_PRES USA_SSHS USA_R34_NE USA_R34_SE USA_R34_SW USA_R34_NW USA_R50_NE USA_R50_SE USA_R50_SW USA_R50_NW USA_R64_NE USA_R64_SE USA_R64_SW USA_R64_NW USA_POCI USA_ROCI USA_RMW USA_EYE TOKYO_LAT TOKYO_LON TOKYO_GRADE TOKYO_WIND TOKYO_PRES TOKYO_R50_DIR TOKYO_R50_LONG TOKYO_R50_SHORT TOKYO_R30_DIR TOKYO_R30_LONG TOKYO_R30_SHORT TOKYO_LAND CMA_LAT CMA_LON CMA_CAT CMA_WIND CMA_PRES HKO_LAT HKO_LON HKO_CAT HKO_WIND HKO_PRES NEWDELHI_LAT NEWDELHI_LON NEWDELHI_GRADE NEWDELHI_WIND NEWDELHI_PRES NEWDELHI_CI NEWDELHI_DP NEWDELHI_POCI REUNION_LAT REUNION_LON REUNION_TYPE REUNION_WIND REUNION_PRES REUNION_TNUM REUNION_CI REUNION_RMW REUNION_R34_NE REUNION_R34_SE REUNION_R34_SW REUNION_R34_NW REUNION_R50_NE REUNION_R50_SE REUNION_R50_SW REUNION_R50_NW REUNION_R64_NE REUNION_R64_SE REUNION_R64_SW REUNION_R64_NW BOM_LAT BOM_LON BOM_TYPE BOM_WIND BOM_PRES BOM_TNUM BOM_CI BOM_RMW BOM_R34_NE BOM_R34_SE BOM_R34_SW BOM_R34_NW BOM_R50_NE BOM_R50_SE BOM_R50_SW BOM_R50_NW BOM_R64_NE BOM_R64_SE BOM_R64_SW BOM_R64_NW BOM_ROCI BOM_POCI BOM_EYE BOM_POS_METHOD BOM_PRES_METHOD NADI_LAT NADI_LON NADI_CAT NADI_WIND NADI_PRES WELLINGTON_LAT WELLINGTON_LON WELLINGTON_WIND WELLINGTON_PRES DS824_LAT DS824_LON DS824_STAGE DS824_WIND DS824_PRES TD9636_LAT TD9636_LON TD9636_STAGE TD9636_WIND TD9636_PRES TD9635_LAT TD9635_LON TD9635_WIND TD9635_PRES TD9635_ROCI NEUMANN_LAT NEUMANN_LON NEUMANN_CLASS NEUMANN_WIND NEUMANN_PRES MLC_LAT MLC_LON MLC_CLASS MLC_WIND MLC_PRES USA_GUST BOM_GUST BOM_GUST_PER REUNION_GUST REUNION_GUST_PER USA_SEAHGT USA_SEARAD_NE USA_SEARAD_SE USA_SEARAD_SW USA_SEARAD_NW STORM_SPEED STORM_DIR
1947345N08092 1947 99 NI BB NOT_NAMED 1947-12-10 18:00:00 TS 7.80000 92.1000 main 422 422 O________O____ jtwc_io IO181947 7.80000 92.1000 -1 7.80000 92.1000 TC 8 328
1947345N08092 1947 99 NI BB NOT_NAMED 1947-12-10 21:00:00 TS 8.12002 91.9001 main 459 459 P________P____ IO181947 8.12002 91.9001 -1 8.12002 91.9001 TC 7 327
1947345N08092 1947 99 NI BB NOT_NAMED 1947-12-11 00:00:00 TS 8.40000 91.7000 main 497 497 O________O____ jtwc_io IO181947 8.40000 91.7000 -1 8.40000 91.7000 TC 25 6 321
1947345N08092 1947 99 NI BB NOT_NAMED 1947-12-11 03:00:00 TS 8.61332 91.5000 main 529 529 P________PO___ IO181947 8.61499 91.5000 -1 8.61499 91.5000 TC 25 8.60000 91.5000 1 6 315
1947345N08092 1947 99 NI BB NOT_NAMED 1947-12-11 06:00:00 TS 8.79945 91.2948 main 560 560 O________OP___ jtwc_io IO181947 8.80000 91.3000 -1 8.80000 91.3000 TC 25 8.79724 91.2738 1 6 313
1947345N08092 1947 99 NI BB NOT_NAMED 1947-12-11 09:00:00 TS 8.99877 91.0885 main 591 591 P________PP___ IO181947 8.99999 91.1000 -1 8.99999 91.1000 TC 25 8.99552 91.0580 1 6 315
1947345N08092 1947 99 NI BB NOT_NAMED 1947-12-11 12:00:00 TS 9.19868 90.8877 main 622 622 O________OP___ jtwc_io IO181947 9.20000 90.9000 -1 9.20000 90.9000 TC 25 9.19604 90.8632 1 6 316
1947345N08092 1947 99 NI BB NOT_NAMED 1947-12-11 15:00:00 TS 9.39999 90.7000 main 654 654 P________PO___ IO181947 9.39999 90.7000 -1 9.39999 90.7000 TC 25 9.40000 90.7000 1 5 318
1947345N08092 1947 99 NI BB NOT_NAMED 1947-12-11 18:00:00 TS 9.60248 90.5224 main 685 685 O________OP___ jtwc_io IO181947 9.60000 90.5000 -1 9.60000 90.5000 TC 25 9.60745 90.5671 1 5 320
1947345N08092 1947 99 NI BB NOT_NAMED 1947-12-11 21:00:00 TS 9.80454 90.3630 main 708 708 P________PP___ IO181947 9.79989 90.3374 -1 9.79989 90.3374 TC 25 9.81382 90.4143 1 6 316
1947345N08092 1947 99 NI BB NOT_NAMED 1947-12-12 00:00:00 TS 10.0044 90.1265 main 747 747 O________OP___ jtwc_io IO181947 10.0000 90.1000 -1 10.0000 90.1000 TC 25 10.0133 90.1795 1 7 304
1947345N08092 1947 99 NI BB NOT_NAMED 1947-12-12 03:00:00 TS 10.2099 89.7600 main 787 787 P________PO___ IO181947 10.2148 89.7400 -1 10.2148 89.7400 TC 25 10.2000 89.8000 1 10 292
1947345N08092 1947 99 NI BB NOT_NAMED 1947-12-12 06:00:00 TS 10.3830 89.1975 main 826 804 O________OP___ jtwc_io IO181947 10.4000 89.2000 -1 10.4000 89.2000 TC 25 10.3490 89.1925 1 13 282
1947345N08092 1947 99 NI BB NOT_NAMED 1947-12-12 09:00:00 TS 10.4955 88.4488 main 794 730 P________PP___ IO181947 10.5001 88.4523 -1 10.5001 88.4523 TC 25 10.4862 88.4419 1 16 278
1947345N08092 1947 99 NI BB NOT_NAMED 1947-12-12 12:00:00 TS 10.6100 87.6068 main 720 650 O________OP___ jtwc_io IO181947 10.6000 87.6000 -1 10.6000 87.6000 TC 25 10.6301 87.6204 1 17 280
1947345N08092 1947 99 NI BB NOT_NAMED 1947-12-12 15:00:00 TS 10.7849 86.7950 main 650 582 P________PO___ IO181947 10.7774 86.7925 -1 10.7774 86.7925 TC 25 10.8000 86.8000 1 16 284
1947345N08092 1947 99 NI BB NOT_NAMED 1947-12-12 18:00:00 TS 11.0072 86.0003 main 582 520 O________OP___ jtwc_io IO181947 11.0000 86.0000 -1 11.0000 86.0000 TC 25 11.0217 86.0010 1 16 287
1947345N08092 1947 99 NI BB NOT_NAMED 1947-12-12 21:00:00 TS 11.2520 85.2029 main 526 474 P________PP___ IO181947 11.2426 85.1901 -1 11.2426 85.1901 TC 25 11.2707 85.2285 1 15 289
1947345N08092 1947 99 NI BB NOT_NAMED 1947-12-13 00:00:00 TS 11.5114 84.5139 main 474 420 O________OP___ jtwc_io IO181947 11.5000 84.5000 -1 11.5000 84.5000 TC 25 11.5343 84.5416 1 13 294
1947345N08092 1947 99 NI BB NOT_NAMED 1947-12-13 03:00:00 TS 11.7665 84.0066 main 420 384 P________PO___ IO181947 11.7498 84.0099 -1 11.7498 84.0099 TC 25 11.8000 84.0000 1 10 302
1947345N08092 1947 99 NI BB NOT_NAMED 1947-12-13 06:00:00 TS 12.0150 83.6884 main 384 360 O________OP___ jtwc_io IO181947 12.0000 83.7000 -1 12.0000 83.7000 TC 25 12.0449 83.6653 1 7 314
1947345N08092 1947 99 NI BB NOT_NAMED 1947-12-13 09:00:00 TS 12.2587 83.4955 main 359 347 P________PP___ IO181947 12.2424 83.5049 -1 12.2424 83.5049 TC 25 12.2912 83.4767 1 6 330
1947345N08092 1947 99 NI BB NOT_NAMED 1947-12-13 12:00:00 TS 12.5140 83.3916 main 347 329 O________OP___ jtwc_io IO181947 12.5000 83.4000 -1 12.5000 83.4000 TC 25 12.5421 83.3748 1 6 341
1947345N08092 1947 99 NI BB NOT_NAMED 1947-12-13 15:00:00 TS 12.8000 83.3000 main 329 314 P________PO___ IO181947 12.8000 83.2999 -1 12.8000 83.2999 TC 25 12.8000 83.3000 1 6 341
1947345N08092 1947 99 NI BB NOT_NAMED 1947-12-13 18:00:00 TS 13.0947 83.1842 main 314 292 O________OP___ jtwc_io IO181947 13.1000 83.2000 -1 13.1000 83.2000 TC 25 13.0840 83.1525 1 6 336
1947345N08092 1947 99 NI BB NOT_NAMED 1947-12-13 21:00:00 TS 13.3625 83.0400 main 292 281 P________PP___ IO181947 13.3575 83.0500 -1 13.3575 83.0500 TC 25 13.3725 83.0200 1 6 332
1947345N08092 1947 99 NI BB NOT_NAMED 1947-12-14 00:00:00 TS 13.6166 82.9008 main 281 270 O________OP___ jtwc_io IO181947 13.6000 82.9000 -1 13.6000 82.9000 TC 25 13.6497 82.9025 1 6 335
1947345N08092 1947 99 NI BB NOT_NAMED 1947-12-14 03:00:00 TS 13.8767 82.7900 main 270 260 P________PO___ IO181947 13.8650 82.7850 -1 13.8650 82.7850 TC 25 13.9000 82.8000 1 5 339
1947345N08092 1947 99 NI BB NOT_NAMED 1947-12-14 06:00:00 TS 14.0999 82.7075 main 261 248 O________OP___ jtwc_io IO181947 14.1000 82.7000 -1 14.1000 82.7000 TC 25 14.0996 82.7226 1 4 341
1947345N08092 1947 99 NI BB NOT_NAMED 1947-12-14 09:00:00 TS 14.2625 82.6523 main 248 232 P________PP___ IO181947 14.2575 82.6499 -1 14.2575 82.6499 TC 25 14.2724 82.6572 1 3 341
1947345N08092 1947 99 NI BB NOT_NAMED 1947-12-14 12:00:00 TS 14.4113 82.5961 main 232 208 O________OP___ jtwc_io IO181947 14.4000 82.6000 -1 14.4000 82.6000 TC 25 14.4340 82.5882 1 4 337
1947345N08092 1947 99 NI BB NOT_NAMED 1947-12-14 15:00:00 TS 14.5950 82.5100 main 208 183 P________PO___ IO181947 14.5925 82.5150 -1 14.5925 82.5150 TC 25 14.6000 82.5000 1 4 333
1947345N08092 1947 99 NI BB NOT_NAMED 1947-12-14 18:00:00 TS 14.7930 82.3924 main 183 159 O________OP___ jtwc_io IO181947 14.8000 82.4000 -1 14.8000 82.4000 TC 25 14.7826 82.3809 1 5 328
1947345N08092 1947 99 NI BB NOT_NAMED 1947-12-14 21:00:00 TS 14.9929 82.2481 main 154 130 P________PP___ IO181947 15.0025 82.2576 -1 15.0025 82.2576 TC 25 14.9802 82.2354 1 5 323
1947345N08092 1947 99 NI BB NOT_NAMED 1947-12-15 00:00:00 TS 15.1938 82.0861 main 130 100 O________OP___ jtwc_io IO181947 15.2000 82.1000 -1 15.2000 82.1000 TC 25 15.1877 82.0723 1 5 320
1947345N08092 1947 99 NI BB NOT_NAMED 1947-12-15 03:00:00 NR 15.4000 81.9000 main 100 __________O___ IO181947 -1 TC 15.4000 81.9000 1 5 319

About IBTrACS Database

This database is a web-friendly format of International Best Track Archive for Climate Stewardship (IBTrACS), a global best track data archive curated by NOAA dating back to 1842.

Updated: 2021-10-21